KTC weather

Katiola Airport
Katiola, Vallée du Bandama, Côte d'Ivoire

Public forecast

Using degrees Celsius for public forecast. Weather courtesy of forecast.io.

METAR (pilot weather report)

Closest report is Bouaké Airport, 23.7 nm (43.8 km) S. Retrieved 2019/05/21 14:00 UTC (52 minutes ago):

DIBK 211400Z 20006KT 9999 SCT015 31/23 Q1013 NOSIG

TAF (pilot weather forecast)

Forecast is more than 6 hours old.

Closest forecast is Bouaké Airport, 23.7 nm (43.8 km) S. Retrieved 2019/05/21 06:56 UTC (8 hours ago):

TAF DIBK 210545Z 2106/2206 VRB03KT 8000 FEW010 PROB40 TEMPO 2106/2108 4000 BR BKN010 PROB30 TEMPO 2106/2107 0800 FG TEMPO 2109/2112 BKN012 BECMG 2111/2112 23010KT TEMPO 2117/2122 TS BKN011 FEW022CB